createdAt,value
2018-03-18T00:00:13.205Z,97589.19
2018-03-18T00:02:42.289Z,97585.97
2018-03-18T00:05:10.946Z,97596.33
2018-03-18T00:07:39.901Z,97600.98
2018-03-18T00:10:08.127Z,97598.42
2018-03-18T00:12:36.302Z,97597.39
2018-03-18T00:15:04.481Z,97591.41
2018-03-18T00:17:32.873Z,97604.95
2018-03-18T00:20:01.391Z,97601.88
2018-03-18T00:22:29.600Z,97592.57
2018-03-18T00:24:57.785Z,97596.02
2018-03-18T00:27:25.947Z,97604.06
2018-03-18T00:29:54.136Z,97593.30
2018-03-18T00:32:22.325Z,97596.48
2018-03-18T00:34:51.166Z,97580.65
2018-03-18T00:37:19.320Z,97586.91
2018-03-18T00:39:47.590Z,97583.95
2018-03-18T00:42:15.786Z,97585.67
2018-03-18T00:44:44.888Z,97594.72
2018-03-18T00:47:13.049Z,97595.21
2018-03-18T00:49:41.183Z,97603.27
2018-03-18T00:52:09.385Z,97605.86
2018-03-18T00:54:37.555Z,97607.73
2018-03-18T00:57:05.813Z,97600.86
2018-03-18T00:59:33.936Z,97595.55
2018-03-18T01:02:02.297Z,97588.74
2018-03-18T01:04:30.723Z,97596.11
2018-03-18T01:06:58.844Z,97591.06
2018-03-18T01:09:27.002Z,97590.30
2018-03-18T01:11:55.145Z,97592.51
2018-03-18T01:14:23.357Z,97595.32
2018-03-18T01:16:51.489Z,97592.54
2018-03-18T01:19:19.660Z,97592.28
2018-03-18T01:21:47.787Z,97585.61
2018-03-18T01:24:15.935Z,97589.44
2018-03-18T01:26:44.100Z,97587.03
2018-03-18T01:29:12.269Z,97588.19
2018-03-18T01:31:40.608Z,97592.55
2018-03-18T01:34:08.749Z,97584.44
2018-03-18T01:36:36.899Z,97588.41
2018-03-18T01:39:05.076Z,97583.62
2018-03-18T01:41:33.286Z,97577.27
2018-03-18T01:44:01.506Z,97573.86
2018-03-18T01:46:29.674Z,97581.59
2018-03-18T01:48:57.889Z,97578.43
2018-03-18T01:51:26.032Z,97576.03
2018-03-18T01:53:54.382Z,97584.53
2018-03-18T01:56:22.565Z,97586.13
2018-03-18T01:58:50.699Z,97586.04
2018-03-18T02:01:18.885Z,97586.82
2018-03-18T02:03:47.027Z,97592.17
2018-03-18T02:06:15.198Z,97584.00
2018-03-18T02:08:43.344Z,97584.27
2018-03-18T02:11:11.490Z,97588.33
2018-03-18T02:13:39.684Z,97591.19
2018-03-18T02:16:07.854Z,97592.34
2018-03-18T02:18:36.037Z,97592.47
2018-03-18T02:21:04.198Z,97585.14
2018-03-18T02:23:32.370Z,97590.56
2018-03-18T02:26:00.529Z,97587.97
2018-03-18T02:28:28.725Z,97589.02
2018-03-18T02:30:56.960Z,97581.23
2018-03-18T02:33:25.185Z,97581.92
2018-03-18T02:35:53.325Z,97586.36
2018-03-18T02:38:22.364Z,97579.28
2018-03-18T02:40:50.538Z,97587.72
2018-03-18T02:43:18.638Z,97586.09
2018-03-18T02:45:46.787Z,97581.95
2018-03-18T02:48:14.944Z,97583.52
2018-03-18T02:50:43.573Z,97582.19
2018-03-18T02:53:11.746Z,97581.12
2018-03-18T02:55:39.910Z,97579.28
2018-03-18T02:58:08.074Z,97582.98
2018-03-18T03:00:36.263Z,97580.59
2018-03-18T03:03:04.506Z,97583.44
2018-03-18T03:05:32.654Z,97576.52
2018-03-18T03:08:00.820Z,97579.29
2018-03-18T03:10:28.969Z,97575.55
2018-03-18T03:12:57.123Z,97576.41
2018-03-18T03:15:25.285Z,97577.70
2018-03-18T03:17:53.421Z,97578.39
2018-03-18T03:20:21.560Z,97575.91
2018-03-18T03:22:49.695Z,97579.87
2018-03-18T03:25:17.924Z,97578.67
2018-03-18T03:27:46.061Z,97577.90
2018-03-18T03:30:14.248Z,97581.36
2018-03-18T03:32:42.383Z,97585.73
2018-03-18T03:35:10.533Z,97589.39
2018-03-18T03:37:38.697Z,97585.41
2018-03-18T03:40:06.839Z,97589.69
2018-03-18T03:42:34.985Z,97592.01
2018-03-18T03:45:03.128Z,97584.22
2018-03-18T03:47:31.270Z,97589.60
2018-03-18T03:49:59.436Z,97594.86
2018-03-18T03:52:27.600Z,97589.77
2018-03-18T03:54:55.739Z,97589.44
2018-03-18T03:57:23.889Z,97587.77
2018-03-18T03:59:52.033Z,97594.25
2018-03-18T04:02:20.173Z,97589.20
2018-03-18T04:04:48.361Z,97591.81
2018-03-18T04:07:16.651Z,97590.53
2018-03-18T04:09:44.810Z,97588.09
2018-03-18T04:12:12.996Z,97587.33
2018-03-18T04:14:41.180Z,97584.95
2018-03-18T04:17:09.948Z,97566.01
2018-03-18T04:19:38.118Z,97583.23
2018-03-18T04:22:06.273Z,97585.53
2018-03-18T04:24:34.439Z,97584.67
2018-03-18T04:27:02.575Z,97589.52
2018-03-18T04:29:30.708Z,97575.17
2018-03-18T04:31:58.847Z,97577.42
2018-03-18T04:34:27.024Z,97586.67
2018-03-18T04:36:55.182Z,97583.41
2018-03-18T04:39:23.336Z,97579.50
2018-03-18T04:41:51.479Z,97579.38
2018-03-18T04:44:19.631Z,97587.34
2018-03-18T04:46:47.827Z,97578.51
2018-03-18T04:49:16.037Z,97576.60
2018-03-18T04:51:44.169Z,97580.52
2018-03-18T04:54:12.346Z,97584.98
2018-03-18T04:56:40.575Z,97581.53
2018-03-18T04:59:08.710Z,97582.67
2018-03-18T05:01:36.860Z,97586.08
2018-03-18T05:04:05.040Z,97584.05
2018-03-18T05:06:33.198Z,97589.81
2018-03-18T05:09:01.340Z,97591.61
2018-03-18T05:11:29.515Z,97593.73
2018-03-18T05:13:57.731Z,97589.81
2018-03-18T05:16:25.882Z,97604.46
2018-03-18T05:18:54.087Z,97599.36
2018-03-18T05:21:22.295Z,97601.88
2018-03-18T05:23:50.460Z,97615.03
2018-03-18T05:26:18.636Z,97639.33
2018-03-18T05:28:46.824Z,97604.39
2018-03-18T05:31:15.089Z,97611.89
2018-03-18T05:33:43.214Z,97611.45
2018-03-18T05:36:11.389Z,97607.95
2018-03-18T05:38:39.552Z,97601.19
2018-03-18T05:41:07.729Z,97614.88
2018-03-18T05:43:35.887Z,97610.23
2018-03-18T05:46:04.134Z,97621.08
2018-03-18T05:48:32.264Z,97623.58
2018-03-18T05:51:00.391Z,97619.55
2018-03-18T05:53:29.820Z,97628.63
2018-03-18T05:55:57.992Z,97626.31
2018-03-18T05:58:26.116Z,97629.80
2018-03-18T06:00:54.274Z,97632.45
2018-03-18T06:03:22.476Z,97641.57
2018-03-18T06:05:50.627Z,97630.45
2018-03-18T06:08:18.780Z,97647.02
2018-03-18T06:10:46.997Z,97648.53
2018-03-18T06:13:15.270Z,97642.23
2018-03-18T06:15:43.416Z,97653.97
2018-03-18T06:18:11.600Z,97651.40
2018-03-18T06:20:39.792Z,97645.83
2018-03-18T06:23:07.932Z,97648.51
2018-03-18T06:25:36.079Z,97646.63
2018-03-18T06:28:04.215Z,97647.30
2018-03-18T06:30:32.420Z,97647.55
2018-03-18T06:33:00.577Z,97653.22
2018-03-18T06:35:28.708Z,97657.96
2018-03-18T06:37:56.888Z,97657.94
2018-03-18T06:40:25.010Z,97659.73
2018-03-18T06:42:53.157Z,97659.73
2018-03-18T06:45:21.330Z,97663.77
2018-03-18T06:47:49.468Z,97663.28
2018-03-18T06:50:17.644Z,97662.27
2018-03-18T06:52:45.822Z,97665.33
2018-03-18T06:55:13.962Z,97653.59
2018-03-18T06:57:42.095Z,97661.86
2018-03-18T07:00:10.375Z,97664.62
2018-03-18T07:02:38.605Z,97662.59
2018-03-18T07:05:06.850Z,97677.19
2018-03-18T07:07:35.196Z,97669.36
2018-03-18T07:10:03.389Z,97669.00
2018-03-18T07:12:31.664Z,97668.79
2018-03-18T07:14:59.880Z,97677.39
2018-03-18T07:17:28.054Z,97666.91
2018-03-18T07:19:56.210Z,97667.69
2018-03-18T07:22:24.378Z,97664.55
2018-03-18T07:24:52.529Z,97674.08
2018-03-18T07:27:20.663Z,97668.83
2018-03-18T07:29:48.835Z,97676.01
2018-03-18T07:32:16.992Z,97672.27
2018-03-18T07:34:45.144Z,97668.79
2018-03-18T07:37:13.322Z,97676.86
2018-03-18T07:39:41.460Z,97668.14
2018-03-18T07:42:09.733Z,97665.39
2018-03-18T07:44:37.825Z,97683.59
2018-03-18T07:47:06.052Z,97677.83
2018-03-18T07:49:34.183Z,97671.22
2018-03-18T07:52:02.365Z,97674.41
2018-03-18T07:54:30.503Z,97677.47
2018-03-18T07:56:58.642Z,97670.27
2018-03-18T07:59:26.831Z,97676.20
2018-03-18T08:01:55.006Z,97681.47
2018-03-18T08:04:23.208Z,97679.97
2018-03-18T08:06:51.335Z,97683.09
2018-03-18T08:09:19.538Z,97690.68
2018-03-18T08:11:47.680Z,97691.97
2018-03-18T08:14:15.919Z,97686.20
2018-03-18T08:16:44.521Z,97691.53
2018-03-18T08:19:12.728Z,97689.73
2018-03-18T08:21:40.917Z,97696.99
2018-03-18T08:24:09.048Z,97693.20
2018-03-18T08:26:37.194Z,97687.00
2018-03-18T08:29:05.350Z,97692.37
2018-03-18T08:31:33.506Z,97701.80
2018-03-18T08:34:01.701Z,97703.92
2018-03-18T08:36:29.840Z,97704.17
2018-03-18T08:38:58.026Z,97702.98
2018-03-18T08:41:26.215Z,97705.42
2018-03-18T08:43:54.369Z,97709.67
2018-03-18T08:46:22.513Z,97699.25
2018-03-18T08:48:50.818Z,97705.17
2018-03-18T08:51:19.003Z,97709.43
2018-03-18T08:53:47.144Z,97705.98
2018-03-18T08:56:15.273Z,97718.65
2018-03-18T08:58:43.414Z,97711.03
2018-03-18T09:01:11.596Z,97721.98
2018-03-18T09:03:39.755Z,97715.25
2018-03-18T09:06:07.920Z,97723.06
2018-03-18T09:08:36.167Z,97724.63
2018-03-18T09:11:05.083Z,97731.80
2018-03-18T09:13:33.255Z,97731.89
2018-03-18T09:16:01.390Z,97729.23
2018-03-18T09:18:29.552Z,97737.22
2018-03-18T09:20:57.684Z,97728.89
2018-03-18T09:23:25.845Z,97734.04
2018-03-18T09:25:53.965Z,97732.44
2018-03-18T09:28:22.111Z,97728.80
2018-03-18T09:30:50.256Z,97721.71
2018-03-18T09:33:18.414Z,97720.11
2018-03-18T09:35:46.566Z,97731.13
2018-03-18T09:38:14.728Z,97734.72
2018-03-18T09:40:42.891Z,97746.28
2018-03-18T09:43:11.026Z,97748.03
2018-03-18T09:45:39.163Z,97748.84
2018-03-18T09:48:07.325Z,97736.94
2018-03-18T09:50:35.477Z,97745.16
2018-03-18T09:53:03.625Z,97740.09
2018-03-18T09:55:31.755Z,97743.48
2018-03-18T09:58:00.068Z,97756.09
2018-03-18T10:00:28.222Z,97747.17
2018-03-18T10:02:56.388Z,97750.61
2018-03-18T10:05:24.545Z,97741.28
2018-03-18T10:07:52.677Z,97746.66
2018-03-18T10:10:20.804Z,97742.05
2018-03-18T10:12:49.617Z,97738.72
2018-03-18T10:15:17.783Z,97735.50
2018-03-18T10:17:45.907Z,97725.94
2018-03-18T10:20:14.127Z,97733.38
2018-03-18T10:22:42.210Z,97738.72
2018-03-18T10:25:10.346Z,97734.14
2018-03-18T10:27:38.486Z,97732.44
2018-03-18T10:30:06.633Z,97725.95
2018-03-18T10:32:34.795Z,97722.69
2018-03-18T10:35:03.099Z,97720.58
2018-03-18T10:37:31.237Z,97717.97
2018-03-18T10:39:59.357Z,97731.88
2018-03-18T10:42:27.497Z,97723.28
2018-03-18T10:44:55.627Z,97730.66
2018-03-18T10:47:23.764Z,97729.23
2018-03-18T10:49:51.922Z,97722.27
2018-03-18T10:52:20.068Z,97729.53
2018-03-18T10:54:48.716Z,97721.30
2018-03-18T10:57:16.858Z,97725.41
2018-03-18T10:59:45.003Z,97725.94
2018-03-18T11:02:17.866Z,97735.41
2018-03-18T11:04:46.021Z,97726.74
2018-03-18T11:07:14.149Z,97728.94
2018-03-18T11:09:42.304Z,97729.22
2018-03-18T11:12:11.395Z,97727.48
2018-03-18T11:14:39.517Z,97727.92
2018-03-18T11:17:07.705Z,97717.35
2018-03-18T11:19:37.152Z,97724.33
2018-03-18T11:22:05.291Z,97720.48
2018-03-18T11:24:33.447Z,97729.45
2018-03-18T11:27:01.606Z,97735.69
2018-03-18T11:29:29.797Z,97734.17
2018-03-18T11:31:57.932Z,97727.92
2018-03-18T11:34:26.083Z,97725.73
2018-03-18T11:36:54.204Z,97739.83
2018-03-18T11:39:22.342Z,97727.33
2018-03-18T11:41:50.493Z,97726.75
2018-03-18T11:44:18.667Z,97728.77
2018-03-18T11:46:46.813Z,97738.92
2018-03-18T11:49:14.947Z,97733.29
2018-03-18T11:51:43.073Z,97723.83
2018-03-18T11:54:11.223Z,97721.28
2018-03-18T11:56:39.354Z,97715.74
2018-03-18T11:59:07.480Z,97712.64
2018-03-18T12:01:35.621Z,97727.63
2018-03-18T12:04:03.762Z,97724.02
2018-03-18T12:06:31.917Z,97716.94
2018-03-18T12:09:00.061Z,97724.11
2018-03-18T12:11:28.232Z,97720.75
2018-03-18T12:13:56.404Z,97719.98
2018-03-18T12:16:24.545Z,97713.31
2018-03-18T12:18:52.695Z,97717.75
2018-03-18T12:21:20.839Z,97723.09
2018-03-18T12:23:48.982Z,97717.62
2018-03-18T12:26:17.113Z,97718.53
2018-03-18T12:28:45.260Z,97732.36
2018-03-18T12:31:13.428Z,97725.21
2018-03-18T12:33:41.588Z,97731.74
2018-03-18T12:36:09.731Z,97729.65
2018-03-18T12:38:37.869Z,97725.61
2018-03-18T12:41:06.051Z,97731.16
2018-03-18T12:43:34.205Z,97722.80
2018-03-18T12:46:02.349Z,97720.69
2018-03-18T12:48:30.479Z,97718.55
2018-03-18T12:50:58.614Z,97726.43
2018-03-18T12:53:26.788Z,97708.28
2018-03-18T12:55:54.928Z,97701.45
2018-03-18T12:58:23.052Z,97705.36
2018-03-18T13:00:51.195Z,97711.48
2018-03-18T13:03:19.332Z,97715.69
2018-03-18T13:05:47.471Z,97718.97
2018-03-18T13:08:15.705Z,97728.42
2018-03-18T13:10:43.840Z,97720.50
2018-03-18T13:13:12.004Z,97716.55
2018-03-18T13:15:40.162Z,97744.48
2018-03-18T13:18:08.296Z,97731.76
2018-03-18T13:20:36.429Z,97733.39
2018-03-18T13:23:04.594Z,97730.95
2018-03-18T13:25:32.825Z,97728.34
2018-03-18T13:28:00.942Z,97736.31
2018-03-18T13:30:29.097Z,97738.04
2018-03-18T13:32:57.247Z,97746.30
2018-03-18T13:35:25.411Z,97742.14
2018-03-18T13:37:53.579Z,97745.05
2018-03-18T13:40:21.727Z,97752.01
2018-03-18T13:42:49.866Z,97759.89
2018-03-18T13:45:18.031Z,97759.00
2018-03-18T13:47:46.181Z,97762.43
2018-03-18T13:50:14.321Z,97747.00
2018-03-18T13:52:42.439Z,97748.31
2018-03-18T13:55:10.589Z,97747.09
2018-03-18T13:57:38.749Z,97744.28
2018-03-18T14:00:06.910Z,97745.78
2018-03-18T14:02:35.040Z,97750.23
2018-03-18T14:05:03.174Z,97748.82
2018-03-18T14:07:31.348Z,97743.39
2018-03-18T14:09:59.494Z,97738.73
2018-03-18T14:12:27.628Z,97737.31
2018-03-18T14:14:55.754Z,97750.62
2018-03-18T14:17:23.885Z,97752.56
2018-03-18T14:19:52.027Z,97745.59
2018-03-18T14:22:20.369Z,97741.96
2018-03-18T14:24:48.535Z,97741.73
2018-03-18T14:27:16.723Z,97732.37
2018-03-18T14:29:45.044Z,97737.92
2018-03-18T14:32:13.190Z,97743.55
2018-03-18T14:34:42.137Z,97736.87
2018-03-18T14:37:10.320Z,97737.91
2018-03-18T14:39:38.452Z,97736.27
2018-03-18T14:42:06.617Z,97736.28
2018-03-18T14:44:34.817Z,97740.41
2018-03-18T14:47:03.891Z,97744.42
2018-03-18T14:49:32.056Z,97747.14
2018-03-18T14:52:00.436Z,97737.06
2018-03-18T14:54:28.669Z,97745.36
2018-03-18T14:56:56.815Z,97740.93
2018-03-18T14:59:24.968Z,97755.05
2018-03-18T15:01:53.142Z,97755.75
2018-03-18T15:04:21.323Z,97757.09
2018-03-18T15:06:49.459Z,97761.42
2018-03-18T15:09:17.599Z,97766.56
2018-03-18T15:11:45.749Z,97766.74
2018-03-18T15:14:13.903Z,97769.45
2018-03-18T15:16:42.097Z,97773.80
2018-03-18T15:19:10.344Z,97785.88
2018-03-18T15:21:38.558Z,97783.64
2018-03-18T15:24:06.722Z,97785.07
2018-03-18T15:26:34.856Z,97778.23
2018-03-18T15:29:03.013Z,97787.80
2018-03-18T15:31:31.193Z,97784.03
2018-03-18T15:33:59.345Z,97792.47
2018-03-18T15:36:27.510Z,97785.94
2018-03-18T15:38:55.656Z,97795.80
2018-03-18T15:41:23.869Z,97790.95
2018-03-18T15:43:52.034Z,97792.83
2018-03-18T15:46:20.174Z,97795.09
2018-03-18T15:48:48.316Z,97798.27
2018-03-18T15:51:16.490Z,97796.53
2018-03-18T15:53:44.636Z,97796.02
2018-03-18T15:56:12.815Z,97794.02
2018-03-18T15:58:40.977Z,97814.41
2018-03-18T16:01:09.151Z,97804.15
2018-03-18T16:03:37.319Z,97808.94
2018-03-18T16:06:06.368Z,97808.08
2018-03-18T16:08:34.521Z,97819.01
2018-03-18T16:11:02.668Z,97813.49
2018-03-18T16:13:30.831Z,97808.55
2018-03-18T16:15:58.970Z,97808.18
2018-03-18T16:18:27.574Z,97811.77
2018-03-18T16:20:55.701Z,97813.83
2018-03-18T16:23:23.897Z,97812.53
2018-03-18T16:25:52.059Z,97814.04
2018-03-18T16:28:20.211Z,97813.81
2018-03-18T16:31:00.138Z,97831.33
2018-03-18T16:33:28.300Z,97831.44
2018-03-18T16:35:56.486Z,97834.83
2018-03-18T16:38:24.657Z,97839.79
2018-03-18T16:40:52.838Z,97842.88
2018-03-18T16:43:20.987Z,97844.50
2018-03-18T16:45:49.877Z,97850.69
2018-03-18T16:48:18.030Z,97853.81
2018-03-18T16:50:46.239Z,97858.44
2018-03-18T16:53:14.431Z,97866.27
2018-03-18T16:55:42.568Z,97868.45
2018-03-18T16:58:10.724Z,97862.00
2018-03-18T17:00:38.896Z,97860.30
2018-03-18T17:03:07.121Z,97858.98
2018-03-18T17:05:35.277Z,97860.58
2018-03-18T17:08:03.446Z,97866.72
2018-03-18T17:10:31.574Z,97859.69
2018-03-18T17:12:59.735Z,97853.41
2018-03-18T17:15:27.895Z,97868.30
2018-03-18T17:17:56.091Z,97879.56
2018-03-18T17:20:24.208Z,97873.52
2018-03-18T17:22:53.218Z,97869.23
2018-03-18T17:25:21.380Z,97868.48
2018-03-18T17:27:49.540Z,97879.17
2018-03-18T17:30:17.702Z,97886.10
2018-03-18T17:32:45.829Z,97893.43
2018-03-18T17:35:14.022Z,97899.07
2018-03-18T17:37:42.159Z,97896.60
2018-03-18T17:40:10.291Z,97898.73
2018-03-18T17:42:38.443Z,97898.32
2018-03-18T17:45:18.435Z,97907.16
2018-03-18T17:47:58.368Z,97901.75
2018-03-18T17:50:38.371Z,97916.61
2018-03-18T17:53:18.405Z,97910.47
2018-03-18T17:55:46.557Z,97905.45
2018-03-18T17:58:14.691Z,97908.81
2018-03-18T18:00:42.838Z,97930.94
2018-03-18T18:03:11.050Z,97921.34
2018-03-18T18:05:39.664Z,97918.72
2018-03-18T18:08:07.862Z,97927.68
2018-03-18T18:10:36.002Z,97924.77
2018-03-18T18:13:04.177Z,97924.66
2018-03-18T18:15:32.331Z,97914.07
2018-03-18T18:18:00.487Z,97926.09
2018-03-18T18:20:28.679Z,97920.75
2018-03-18T18:22:56.807Z,97927.03
2018-03-18T18:25:24.975Z,97925.32
2018-03-18T18:27:53.120Z,97931.98
2018-03-18T18:30:21.260Z,97932.20
2018-03-18T18:32:49.476Z,97928.48
2018-03-18T18:35:17.638Z,97942.34
2018-03-18T18:37:46.570Z,97952.91
2018-03-18T18:40:14.764Z,97944.55
2018-03-18T18:42:42.901Z,97939.36
2018-03-18T18:45:11.074Z,97958.84
2018-03-18T18:47:40.003Z,97940.63
2018-03-18T18:50:09.096Z,97944.30
2018-03-18T18:52:37.359Z,97955.70
2018-03-18T18:55:06.425Z,97948.30
2018-03-18T18:57:35.365Z,97942.02
2018-03-18T19:00:03.503Z,97958.25
2018-03-18T19:02:31.681Z,97952.40
2018-03-18T19:04:59.887Z,97974.34
2018-03-18T19:07:28.828Z,97959.67
2018-03-18T19:09:57.012Z,97965.44
2018-03-18T19:12:25.139Z,97968.95
2018-03-18T19:14:53.289Z,97961.96
2018-03-18T19:17:21.503Z,97965.36
2018-03-18T19:19:49.662Z,97966.25
2018-03-18T19:22:17.831Z,97966.63
2018-03-18T19:24:46.745Z,97981.41
2018-03-18T19:27:14.927Z,97958.98
2018-03-18T19:29:44.135Z,97977.53
2018-03-18T19:32:13.316Z,97984.72
2018-03-18T19:34:41.480Z,97992.84
2018-03-18T19:37:09.656Z,97997.62
2018-03-18T19:39:37.902Z,97983.66
2018-03-18T19:42:06.060Z,97993.38
2018-03-18T19:44:34.235Z,97988.64
2018-03-18T19:47:02.643Z,97986.38
2018-03-18T19:49:30.821Z,98002.83
2018-03-18T19:51:59.039Z,98000.26
2018-03-18T19:54:27.212Z,97995.07
2018-03-18T19:56:55.355Z,97999.73
2018-03-18T19:59:23.524Z,97993.62
2018-03-18T20:01:51.738Z,97988.77
2018-03-18T20:04:20.024Z,97988.76
2018-03-18T20:06:48.152Z,98013.39
2018-03-18T20:09:16.337Z,97989.01
2018-03-18T20:11:44.496Z,97991.78
2018-03-18T20:14:12.649Z,98013.34
2018-03-18T20:16:40.829Z,97997.98
2018-03-18T20:19:09.012Z,97998.55
2018-03-18T20:21:37.232Z,98006.14
2018-03-18T20:24:05.446Z,97993.50
2018-03-18T20:26:33.570Z,98007.91
2018-03-18T20:29:01.736Z,97999.78
2018-03-18T20:31:29.999Z,98000.35
2018-03-18T20:33:58.135Z,97998.09
2018-03-18T20:36:26.335Z,97989.45
2018-03-18T20:38:54.498Z,98006.42
2018-03-18T20:41:23.293Z,97997.88
2018-03-18T20:43:51.660Z,97994.38
2018-03-18T20:46:19.846Z,97996.38
2018-03-18T20:48:47.980Z,97998.41
2018-03-18T20:51:16.164Z,98003.01
2018-03-18T20:53:44.366Z,98017.23
2018-03-18T20:56:12.494Z,98008.59
2018-03-18T20:58:40.642Z,98014.91
2018-03-18T21:01:09.791Z,98017.14
2018-03-18T21:03:37.939Z,98010.03
2018-03-18T21:06:06.076Z,98022.06
2018-03-18T21:08:34.268Z,98041.92
2018-03-18T21:11:02.428Z,98018.04
2018-03-18T21:13:30.576Z,98045.31
2018-03-18T21:15:58.824Z,98010.18
2018-03-18T21:18:26.974Z,98016.16
2018-03-18T21:20:55.140Z,98010.81
2018-03-18T21:23:23.296Z,98029.98
2018-03-18T21:25:52.045Z,98017.83
2018-03-18T21:28:20.173Z,98017.70
2018-03-18T21:30:48.468Z,98015.02
2018-03-18T21:33:16.608Z,98017.17
2018-03-18T21:35:44.764Z,98027.41
2018-03-18T21:38:12.942Z,98016.28
2018-03-18T21:40:41.061Z,98019.33
2018-03-18T21:43:09.978Z,98013.27
2018-03-18T21:45:38.283Z,98031.61
2018-03-18T21:48:06.414Z,98009.86
2018-03-18T21:50:34.586Z,98018.76
2018-03-18T21:53:02.787Z,98007.13
2018-03-18T21:55:30.922Z,98007.03
2018-03-18T21:57:59.040Z,98016.69
2018-03-18T22:00:27.231Z,98014.54
2018-03-18T22:02:55.372Z,98014.95
2018-03-18T22:05:23.524Z,98015.06
2018-03-18T22:07:51.682Z,98007.72
2018-03-18T22:10:19.853Z,98013.86
2018-03-18T22:12:48.043Z,98015.55
2018-03-18T22:15:16.221Z,98013.91
2018-03-18T22:17:44.344Z,98018.38
2018-03-18T22:20:12.500Z,98016.63
2018-03-18T22:22:40.674Z,98006.84
2018-03-18T22:25:08.826Z,98023.69
2018-03-18T22:27:37.028Z,98010.38
2018-03-18T22:30:05.165Z,98014.27
2018-03-18T22:32:33.306Z,98004.34
2018-03-18T22:35:01.457Z,98003.23
2018-03-18T22:37:29.757Z,98010.30
2018-03-18T22:39:57.899Z,98004.72
2018-03-18T22:42:26.031Z,98008.22
2018-03-18T22:44:54.210Z,98005.97
2018-03-18T22:47:22.352Z,98009.98
2018-03-18T22:49:50.524Z,98009.12
2018-03-18T22:52:18.762Z,98005.27
2018-03-18T22:54:46.891Z,98005.50
2018-03-18T22:57:15.088Z,98021.00
2018-03-18T22:59:43.225Z,98015.80
2018-03-18T23:02:11.384Z,98006.47
2018-03-18T23:04:39.525Z,98001.94
2018-03-18T23:07:07.771Z,98000.61
2018-03-18T23:09:35.913Z,98002.91
2018-03-18T23:12:04.042Z,98003.50
2018-03-18T23:14:32.204Z,97993.91
2018-03-18T23:17:00.358Z,98009.70
2018-03-18T23:19:28.532Z,98003.19
2018-03-18T23:21:56.737Z,98018.28
2018-03-18T23:24:24.869Z,98029.38
2018-03-18T23:26:53.027Z,98019.70
2018-03-18T23:29:21.483Z,98029.53
2018-03-18T23:31:49.622Z,98026.23
2018-03-18T23:34:17.774Z,98020.89
2018-03-18T23:36:45.936Z,98024.51
2018-03-18T23:39:14.089Z,98021.28
2018-03-18T23:41:42.334Z,98019.30
2018-03-18T23:44:10.547Z,98018.41
2018-03-18T23:46:38.710Z,98022.11
2018-03-18T23:49:06.884Z,98016.56
2018-03-18T23:51:35.058Z,98016.61
2018-03-18T23:54:03.219Z,98024.46
2018-03-18T23:56:31.389Z,98025.27
2018-03-18T23:58:59.563Z,98020.94
